Time;durP1;ratioP1;P1;durP2;ratioP2;P2;SDS_P1;SDS_P2;PMS_P1;PMS_P2;Temp;Humidity;BMP_temperature;BMP_pressure;BME280_temperature;BME280_humidity;BME280_pressure;Samples;Min_cycle;Max_cycle;Signal;HPM_P1;HPM_P2
2023/08/17 00:02:20;;;;;;;25.03;23.87;;;24.20;99.90;;;;;;5060194;28;20508;-48
2023/08/17 00:04:47;;;;;;;25.00;24.10;;;24.20;99.90;;;;;;5064792;28;20521;-48
2023/08/17 00:07:14;;;;;;;24.60;23.27;;;24.20;99.90;;;;;;5066071;28;20503;-47
2023/08/17 00:09:42;;;;;;;26.40;25.50;;;24.20;99.90;;;;;;5064507;28;20467;-49
2023/08/17 00:12:09;;;;;;;25.50;24.50;;;24.20;99.90;;;;;;5061733;28;20476;-48
2023/08/17 00:14:35;;;;;;;24.60;23.70;;;24.10;99.90;;;;;;5060227;28;20475;-51
2023/08/17 00:17:04;;;;;;;27.07;25.97;;;24.10;99.90;;;;;;5061953;28;20498;-48
2023/08/17 00:19:31;;;;;;;26.50;25.50;;;24.10;99.90;;;;;;5062375;28;20502;-48
2023/08/17 00:21:58;;;;;;;27.57;26.20;;;24.10;99.90;;;;;;5062477;28;20512;-47
2023/08/17 00:24:25;;;;;;;27.63;26.43;;;24.10;99.90;;;;;;5061797;28;20490;-47
2023/08/17 00:26:52;;;;;;;26.77;25.67;;;24.10;99.90;;;;;;5064218;28;21018;-47
2023/08/17 00:29:19;;;;;;;27.50;26.50;;;24.10;99.90;;;;;;5065280;28;20489;-49
2023/08/17 00:31:46;;;;;;;29.10;28.00;;;24.00;99.90;;;;;;5056607;28;20507;-47
2023/08/17 00:34:14;;;;;;;26.73;25.63;;;24.10;99.90;;;;;;5065395;28;20915;-49
2023/08/17 00:36:41;;;;;;;26.30;25.20;;;24.00;99.90;;;;;;5064010;28;20482;-47
2023/08/17 00:39:08;;;;;;;25.83;24.80;;;24.00;99.90;;;;;;5061681;28;20463;-47
2023/08/17 00:41:35;;;;;;;27.80;26.50;;;24.00;99.90;;;;;;5060983;28;20893;-50
2023/08/17 00:44:02;;;;;;;27.20;26.20;;;24.00;99.90;;;;;;5065206;28;20522;-46
2023/08/17 00:46:29;;;;;;;27.30;26.30;;;24.00;99.90;;;;;;5064809;28;20584;-48
2023/08/17 00:48:58;;;;;;;27.30;26.30;;;23.90;99.90;;;;;;5061923;28;20468;-47
2023/08/17 00:51:27;;;;;;;28.13;27.13;;;23.90;99.90;;;;;;5060947;28;20471;-46
2023/08/17 00:53:55;;;;;;;27.90;26.83;;;23.90;99.90;;;;;;5062841;28;20530;-48
2023/08/17 00:56:22;;;;;;;25.37;24.47;;;23.90;99.90;;;;;;5064585;28;20857;-47
2023/08/17 00:58:50;;;;;;;25.90;24.80;;;23.90;99.90;;;;;;5062381;28;20882;-48
2023/08/17 01:01:17;;;;;;;28.97;27.87;;;23.90;99.90;;;;;;5060408;28;20464;-47
2023/08/17 01:03:44;;;;;;;28.30;27.30;;;23.90;99.90;;;;;;5061992;28;20958;-52
2023/08/17 01:06:11;;;;;;;28.20;26.90;;;23.90;99.90;;;;;;5060868;28;20902;-50
2023/08/17 01:08:42;;;;;;;25.73;24.73;;;23.90;99.90;;;;;;5061204;28;20470;-48
2023/08/17 01:11:21;;;;;;;28.27;27.07;;;23.90;99.90;;;;;;5060474;28;20514;-46
2023/08/17 01:13:53;;;;;;;28.87;27.47;;;23.90;99.90;;;;;;5060906;28;20487;-47
2023/08/17 01:16:26;;;;;;;26.20;25.20;;;23.90;99.90;;;;;;5064890;28;20470;-48
2023/08/17 01:18:53;;;;;;;26.20;25.30;;;23.80;99.90;;;;;;5062107;28;20446;-48
2023/08/17 01:21:23;;;;;;;27.73;26.70;;;23.80;99.90;;;;;;5060509;28;20500;-49
2023/08/17 01:23:51;;;;;;;27.57;26.47;;;23.80;99.90;;;;;;5062292;28;20442;-47
2023/08/17 01:26:18;;;;;;;25.20;24.30;;;23.80;99.90;;;;;;5064044;28;20489;-50
2023/08/17 01:28:47;;;;;;;25.43;24.53;;;23.80;99.90;;;;;;5062740;28;20478;-51
2023/08/17 01:31:22;;;;;;;26.13;25.17;;;23.80;99.90;;;;;;5060537;28;20499;-47
2023/08/17 01:33:53;;;;;;;25.23;24.23;;;23.80;99.90;;;;;;5062172;28;20471;-47
2023/08/17 01:36:26;;;;;;;28.77;27.57;;;23.80;99.90;;;;;;5064242;28;20485;-48
2023/08/17 01:38:56;;;;;;;28.43;27.33;;;23.80;99.90;;;;;;5062202;28;20471;-51
2023/08/17 01:41:24;;;;;;;29.03;27.60;;;23.80;99.90;;;;;;5060552;28;20464;-48
2023/08/17 01:43:52;;;;;;;27.30;26.30;;;23.80;99.90;;;;;;5062789;28;20448;-50
2023/08/17 01:46:19;;;;;;;26.00;25.00;;;23.80;99.90;;;;;;5064527;28;20471;-49
2023/08/17 01:48:46;;;;;;;27.10;26.10;;;23.80;99.90;;;;;;5063161;28;20522;-48
2023/08/17 01:51:19;;;;;;;27.77;26.73;;;23.70;99.90;;;;;;5060295;28;20499;-49
2023/08/17 01:53:46;;;;;;;28.70;27.70;;;23.70;99.90;;;;;;5061516;28;20436;-49
2023/08/17 01:56:14;;;;;;;26.27;25.20;;;23.70;99.90;;;;;;5064214;28;20474;-49
2023/08/17 01:58:41;;;;;;;26.40;25.50;;;23.70;99.90;;;;;;5060110;28;20480;-49
2023/08/17 02:01:08;;;;;;;27.43;26.47;;;23.70;99.90;;;;;;5065263;28;20496;-50
2023/08/17 02:03:35;;;;;;;27.43;26.43;;;23.70;99.90;;;;;;5060331;28;20476;-52
2023/08/17 02:06:02;;;;;;;27.00;26.10;;;23.70;99.90;;;;;;5066039;28;20463;-52
2023/08/17 02:08:29;;;;;;;28.53;27.43;;;23.70;99.90;;;;;;5065323;28;20514;-47
2023/08/17 02:10:55;;;;;;;28.63;27.53;;;23.70;99.90;;;;;;5067046;28;20495;-48
2023/08/17 02:13:27;;;;;;;27.60;26.50;;;23.70;99.90;;;;;;5067668;28;20479;-54
2023/08/17 02:15:54;;;;;;;30.47;29.27;;;23.70;99.90;;;;;;5065924;28;20443;-48
2023/08/17 02:18:21;;;;;;;28.50;27.50;;;23.70;99.90;;;;;;5064284;28;20467;-48
2023/08/17 02:20:48;;;;;;;27.40;26.50;;;23.70;99.90;;;;;;5064856;28;20495;-52
2023/08/17 02:23:14;;;;;;;26.83;25.83;;;23.70;99.90;;;;;;5063753;28;20502;-52
2023/08/17 02:25:41;;;;;;;26.20;25.30;;;23.70;99.90;;;;;;5064626;28;20550;-47
2023/08/17 02:28:08;;;;;;;30.23;29.13;;;23.70;99.90;;;;;;5067152;28;20554;-51
2023/08/17 02:30:37;;;;;;;27.70;26.57;;;23.70;99.90;;;;;;5064276;28;20476;-50
2023/08/17 02:33:04;;;;;;;29.90;28.67;;;23.70;99.90;;;;;;5067140;28;20447;-49
2023/08/17 02:35:31;;;;;;;29.27;28.17;;;23.70;99.90;;;;;;5067257;28;20879;-48
2023/08/17 02:37:58;;;;;;;27.93;26.80;;;23.70;99.90;;;;;;5064510;28;20467;-48
2023/08/17 02:40:25;;;;;;;27.37;26.20;;;23.70;99.90;;;;;;5063302;28;20471;-50
2023/08/17 02:42:52;;;;;;;29.07;27.97;;;23.70;99.90;;;;;;5064987;28;20970;-48
2023/08/17 02:45:19;;;;;;;27.43;26.43;;;23.70;99.90;;;;;;5067125;28;20974;-49
2023/08/17 02:47:47;;;;;;;26.37;25.47;;;23.60;99.90;;;;;;5065694;28;20557;-49
2023/08/17 02:50:14;;;;;;;27.87;26.77;;;23.60;99.90;;;;;;5063237;28;20476;-48
2023/08/17 02:52:41;;;;;;;26.70;25.73;;;23.60;99.90;;;;;;5063348;28;20439;-48
2023/08/17 02:55:08;;;;;;;27.53;26.53;;;23.60;99.90;;;;;;5066804;28;20470;-49
2023/08/17 02:57:35;;;;;;;26.10;25.00;;;23.60;99.90;;;;;;5066819;28;20443;-52
2023/08/17 03:00:02;;;;;;;26.50;25.50;;;23.60;99.90;;;;;;5059856;28;20477;-52
2023/08/17 03:02:29;;;;;;;26.13;25.23;;;23.60;99.90;;;;;;5061123;28;20479;-50
2023/08/17 03:04:57;;;;;;;27.80;26.70;;;23.60;99.90;;;;;;5065449;28;20472;-47
2023/08/17 03:07:24;;;;;;;30.00;28.10;;;23.60;99.90;;;;;;5066388;28;20502;-47
2023/08/17 03:09:51;;;;;;;28.60;27.60;;;23.60;99.90;;;;;;5064726;28;20868;-52
2023/08/17 03:12:18;;;;;;;28.47;27.47;;;23.60;99.90;;;;;;5062991;28;20518;-47
2023/08/17 03:14:44;;;;;;;29.10;27.90;;;23.60;99.90;;;;;;5064075;28;20476;-50
2023/08/17 03:17:11;;;;;;;29.00;27.80;;;23.50;99.90;;;;;;5066606;28;20463;-48
2023/08/17 03:19:38;;;;;;;29.07;27.97;;;23.50;99.90;;;;;;5066201;28;20443;-48
2023/08/17 03:22:06;;;;;;;28.57;27.47;;;23.50;99.90;;;;;;5062573;28;20499;-53
2023/08/17 03:24:33;;;;;;;26.50;25.60;;;23.50;99.90;;;;;;5063131;28;20479;-48
2023/08/17 03:27:00;;;;;;;28.23;27.13;;;23.50;99.90;;;;;;5063123;28;20518;-51
2023/08/17 03:29:27;;;;;;;27.37;26.37;;;23.50;99.90;;;;;;5063158;28;20471;-53
2023/08/17 03:31:54;;;;;;;32.57;31.17;;;23.50;99.90;;;;;;5064705;28;20475;-47
2023/08/17 03:34:21;;;;;;;30.53;29.23;;;23.50;99.90;;;;;;5066571;28;20479;-46
2023/08/17 03:36:48;;;;;;;27.10;26.10;;;23.50;99.90;;;;;;5065076;28;20470;-48
2023/08/17 03:39:16;;;;;;;29.20;28.20;;;23.50;99.90;;;;;;5055749;28;20541;-46
2023/08/17 03:41:43;;;;;;;26.90;25.90;;;23.50;99.90;;;;;;5062846;28;20495;-48
2023/08/17 03:44:10;;;;;;;28.90;27.90;;;23.50;99.90;;;;;;5066626;28;20872;-47
2023/08/17 03:46:37;;;;;;;29.53;28.33;;;23.50;99.90;;;;;;5066219;28;20874;-47
2023/08/17 03:49:04;;;;;;;28.27;27.07;;;23.50;99.90;;;;;;5062914;28;20520;-48
2023/08/17 03:51:31;;;;;;;27.60;26.50;;;23.40;99.90;;;;;;5062710;28;20994;-46
2023/08/17 03:53:58;;;;;;;30.40;28.90;;;23.40;99.90;;;;;;5064597;28;20444;-49
2023/08/17 03:56:26;;;;;;;29.33;27.97;;;23.40;99.90;;;;;;5065876;28;20958;-46
2023/08/17 03:58:54;;;;;;;29.37;28.07;;;23.40;99.90;;;;;;5064542;28;20442;-49
2023/08/17 04:01:21;;;;;;;31.13;29.70;;;23.40;99.90;;;;;;5062641;28;20503;-46
2023/08/17 04:03:48;;;;;;;33.63;31.90;;;23.40;99.90;;;;;;5063018;28;20476;-48
2023/08/17 04:06:15;;;;;;;35.03;33.17;;;23.40;99.90;;;;;;5066104;28;20471;-47
2023/08/17 04:08:42;;;;;;;35.57;34.17;;;23.40;99.90;;;;;;5065796;28;20483;-48
2023/08/17 04:11:09;;;;;;;35.73;34.27;;;23.40;99.90;;;;;;5054051;28;20491;-48
2023/08/17 04:13:37;;;;;;;34.77;33.17;;;23.40;99.90;;;;;;5062170;28;20464;-48
2023/08/17 04:16:04;;;;;;;32.53;31.03;;;23.40;99.90;;;;;;5065241;28;20902;-48
2023/08/17 04:18:31;;;;;;;36.57;34.30;;;23.40;99.90;;;;;;5067654;28;20858;-48
2023/08/17 04:20:58;;;;;;;38.47;36.87;;;23.40;99.90;;;;;;5064178;28;20499;-47
2023/08/17 04:23:24;;;;;;;37.43;35.60;;;23.40;99.90;;;;;;5065562;28;20478;-48
2023/08/17 04:25:51;;;;;;;35.70;34.00;;;23.30;99.90;;;;;;5064516;28;20850;-47
2023/08/17 04:28:18;;;;;;;38.33;36.53;;;23.30;99.90;;;;;;5064617;28;20471;-46
2023/08/17 04:30:46;;;;;;;40.77;38.90;;;23.30;99.90;;;;;;5065330;28;20491;-47
2023/08/17 04:33:13;;;;;;;40.40;38.40;;;23.30;99.90;;;;;;5059296;28;20575;-48
2023/08/17 04:35:40;;;;;;;36.93;35.20;;;23.30;99.90;;;;;;5065395;28;20810;-48
2023/08/17 04:38:07;;;;;;;38.33;35.60;;;23.30;99.90;;;;;;5061868;28;20440;-46
2023/08/17 04:40:34;;;;;;;37.10;34.90;;;23.30;99.90;;;;;;5061878;28;20498;-49
2023/08/17 04:43:01;;;;;;;38.00;35.50;;;23.30;99.90;;;;;;5063747;28;20480;-49
2023/08/17 04:45:28;;;;;;;38.20;35.90;;;23.30;99.90;;;;;;5065347;28;20470;-49
2023/08/17 04:47:56;;;;;;;37.87;35.87;;;23.40;99.90;;;;;;5064028;28;20558;-49
2023/08/17 04:50:23;;;;;;;38.50;36.47;;;23.40;99.90;;;;;;5060666;28;20496;-49
2023/08/17 04:52:50;;;;;;;39.00;36.90;;;23.40;99.90;;;;;;5060935;28;20436;-46
2023/08/17 04:55:17;;;;;;;35.90;33.90;;;23.40;99.90;;;;;;5063733;28;20475;-48
2023/08/17 04:57:44;;;;;;;37.37;35.37;;;23.40;99.90;;;;;;5063757;28;20467;-47
2023/08/17 05:00:12;;;;;;;34.87;33.37;;;23.50;99.90;;;;;;5052174;28;20445;-49
2023/08/17 05:02:39;;;;;;;37.60;35.80;;;23.50;99.90;;;;;;5060079;28;20475;-50
2023/08/17 05:05:10;;;;;;;39.23;37.10;;;23.50;99.90;;;;;;5062985;28;20481;-48
2023/08/17 05:07:37;;;;;;;37.80;35.50;;;23.50;99.90;;;;;;5063569;28;20507;-48
2023/08/17 05:10:05;;;;;;;36.63;34.73;;;23.50;99.90;;;;;;5060558;28;20490;-49
2023/08/17 05:12:32;;;;;;;36.07;34.17;;;23.50;99.90;;;;;;5060147;28;20440;-48
2023/08/17 05:14:58;;;;;;;37.30;35.40;;;23.50;99.90;;;;;;5061898;28;20873;-48
2023/08/17 05:17:26;;;;;;;39.63;37.73;;;23.50;99.90;;;;;;5063466;28;20489;-47
2023/08/17 05:19:53;;;;;;;36.83;35.23;;;23.50;99.90;;;;;;5062174;28;20443;-48
2023/08/17 05:22:22;;;;;;;38.30;36.17;;;23.50;99.90;;;;;;5059641;28;20539;-47
2023/08/17 05:24:48;;;;;;;37.90;36.20;;;23.50;99.90;;;;;;5059981;28;20468;-48
2023/08/17 05:27:15;;;;;;;36.10;34.50;;;23.60;99.90;;;;;;5063171;28;20470;-46
2023/08/17 05:29:42;;;;;;;37.10;34.83;;;23.60;99.90;;;;;;5063184;28;20497;-46
2023/08/17 05:32:09;;;;;;;37.93;36.30;;;23.60;99.90;;;;;;5059675;28;20464;-48
2023/08/17 05:34:37;;;;;;;40.13;38.40;;;23.60;99.90;;;;;;5059748;28;20599;-48
2023/08/17 05:37:04;;;;;;;38.57;36.60;;;23.60;99.90;;;;;;5062231;28;20498;-48
2023/08/17 05:39:32;;;;;;;37.07;35.47;;;23.60;99.90;;;;;;5062899;28;20463;-49
2023/08/17 05:41:59;;;;;;;36.67;35.17;;;23.60;99.90;;;;;;5060895;28;21001;-46
2023/08/17 05:44:26;;;;;;;34.90;33.30;;;23.60;99.90;;;;;;5059641;28;20983;-48
2023/08/17 05:46:53;;;;;;;38.43;36.73;;;23.60;99.90;;;;;;5060466;28;20468;-47
2023/08/17 05:49:20;;;;;;;35.63;34.13;;;23.60;99.90;;;;;;5063117;28;20515;-48
2023/08/17 05:51:46;;;;;;;36.80;35.10;;;23.60;99.90;;;;;;5063050;28;20509;-48
2023/08/17 05:54:13;;;;;;;39.57;37.87;;;23.60;99.90;;;;;;5051429;28;20464;-48
2023/08/17 05:56:44;;;;;;;37.30;35.50;;;23.60;99.90;;;;;;5059564;28;20479;-51
2023/08/17 05:59:11;;;;;;;36.57;34.97;;;23.60;99.90;;;;;;5062636;28;20995;-47
2023/08/17 06:01:38;;;;;;;37.33;35.63;;;23.60;99.90;;;;;;5062775;28;20858;-48
2023/08/17 06:04:06;;;;;;;38.17;36.47;;;23.60;99.90;;;;;;5060617;28;20876;-48
2023/08/17 06:06:33;;;;;;;39.50;37.80;;;23.70;99.90;;;;;;5059575;28;20464;-48
2023/08/17 06:09:00;;;;;;;38.10;36.50;;;23.70;99.90;;;;;;5060920;28;20476;-49
2023/08/17 06:11:27;;;;;;;39.07;37.47;;;23.70;99.90;;;;;;5062681;28;20501;-48
2023/08/17 06:13:55;;;;;;;37.93;36.33;;;23.70;99.90;;;;;;5061571;28;20477;-46
2023/08/17 06:16:22;;;;;;;38.93;37.20;;;23.60;99.90;;;;;;5059480;28;20468;-47
2023/08/17 06:18:49;;;;;;;37.27;35.73;;;23.70;99.90;;;;;;5059263;28;20471;-47
2023/08/17 06:21:16;;;;;;;38.13;36.40;;;23.70;99.90;;;;;;5062584;28;20459;-49
2023/08/17 06:23:43;;;;;;;37.90;36.30;;;23.70;99.90;;;;;;5062549;28;20513;-48
2023/08/17 06:26:09;;;;;;;37.97;36.37;;;23.70;99.90;;;;;;5059638;28;20522;-48
2023/08/17 06:28:36;;;;;;;41.27;39.47;;;23.70;99.90;;;;;;5059142;28;20571;-48
2023/08/17 06:31:05;;;;;;;42.10;40.40;;;23.70;99.90;;;;;;5061291;28;21189;-48
2023/08/17 06:33:32;;;;;;;39.10;37.50;;;23.70;99.90;;;;;;5062406;28;20466;-47
2023/08/17 06:35:58;;;;;;;38.03;36.27;;;23.70;99.90;;;;;;5061187;28;20467;-48
2023/08/17 06:38:25;;;;;;;37.97;36.47;;;23.70;99.90;;;;;;5059068;28;20440;-47
2023/08/17 06:40:53;;;;;;;39.13;37.53;;;23.70;99.90;;;;;;5059605;28;20892;-48
2023/08/17 06:43:20;;;;;;;39.17;37.60;;;23.70;99.90;;;;;;5062497;28;20471;-46
2023/08/17 06:45:47;;;;;;;40.37;38.70;;;23.70;99.90;;;;;;5062568;28;20454;-48
2023/08/17 06:48:15;;;;;;;40.67;38.83;;;23.70;99.90;;;;;;5058877;28;20476;-46
2023/08/17 06:50:42;;;;;;;36.73;35.23;;;23.70;99.90;;;;;;5058874;28;20460;-48
2023/08/17 06:53:09;;;;;;;38.87;37.30;;;23.70;99.90;;;;;;5065366;28;20498;-46
2023/08/17 06:55:36;;;;;;;35.90;34.40;;;23.70;99.90;;;;;;5066203;28;20467;-47
2023/08/17 06:58:03;;;;;;;37.83;36.30;;;23.80;99.90;;;;;;5064140;28;20483;-49
2023/08/17 07:00:30;;;;;;;36.67;35.17;;;23.70;99.90;;;;;;5062433;28;20460;-48
2023/08/17 07:02:57;;;;;;;39.93;38.33;;;23.80;99.90;;;;;;5063236;28;20440;-46
2023/08/17 07:05:25;;;;;;;40.40;38.87;;;23.80;99.90;;;;;;5065974;28;20475;-48
2023/08/17 07:07:52;;;;;;;37.87;36.37;;;23.80;99.90;;;;;;5065274;28;20459;-48
2023/08/17 07:10:20;;;;;;;37.73;36.20;;;23.80;99.90;;;;;;5062234;28;21055;-48
2023/08/17 07:12:47;;;;;;;39.33;37.70;;;23.70;99.90;;;;;;5062245;28;20478;-48
2023/08/17 07:15:14;;;;;;;37.67;36.10;;;23.70;99.90;;;;;;5065470;28;20467;-48
2023/08/17 07:17:41;;;;;;;37.97;36.37;;;23.70;99.90;;;;;;5065871;28;20443;-46
2023/08/17 07:20:09;;;;;;;38.10;36.50;;;23.70;99.90;;;;;;5063134;28;20488;-49
2023/08/17 07:22:38;;;;;;;36.63;34.90;;;23.80;99.90;;;;;;5062093;28;20447;-48
2023/08/17 07:25:05;;;;;;;36.90;35.50;;;23.80;99.90;;;;;;5064014;28;20472;-46
2023/08/17 07:27:32;;;;;;;38.83;37.20;;;23.80;99.90;;;;;;5065683;28;20862;-47
2023/08/17 07:29:59;;;;;;;38.10;36.13;;;23.80;99.90;;;;;;5064161;28;20497;-48
2023/08/17 07:32:26;;;;;;;38.27;36.77;;;23.80;99.90;;;;;;5061844;28;20444;-48
2023/08/17 07:34:53;;;;;;;39.57;37.97;;;23.80;99.90;;;;;;5062279;28;20440;-48
2023/08/17 07:37:20;;;;;;;36.50;34.60;;;23.80;99.90;;;;;;5065380;28;20474;-46
2023/08/17 07:39:49;;;;;;;36.30;34.90;;;23.80;99.90;;;;;;5065403;28;20463;-48
2023/08/17 07:42:16;;;;;;;37.93;36.53;;;23.80;99.90;;;;;;5061823;28;20460;-48
2023/08/17 07:44:43;;;;;;;37.83;36.13;;;23.80;99.90;;;;;;5061861;28;20471;-47
2023/08/17 07:47:09;;;;;;;37.60;36.10;;;23.80;99.90;;;;;;5064266;28;20816;-49
2023/08/17 07:49:36;;;;;;;36.00;34.53;;;23.80;99.90;;;;;;5065028;28;20499;-48
2023/08/17 07:52:04;;;;;;;37.70;36.30;;;23.80;99.90;;;;;;5063360;28;20506;-47
2023/08/17 07:54:30;;;;;;;39.30;37.70;;;23.80;99.90;;;;;;5061680;28;20494;-48
2023/08/17 07:56:59;;;;;;;38.77;37.17;;;23.80;99.90;;;;;;5062252;28;20520;-48
2023/08/17 07:59:25;;;;;;;36.77;35.30;;;23.80;99.90;;;;;;5065073;28;20494;-48
2023/08/17 08:01:52;;;;;;;37.80;36.10;;;23.80;99.90;;;;;;5064326;28;20497;-47
2023/08/17 08:04:19;;;;;;;33.30;32.00;;;23.80;99.90;;;;;;5060355;28;20468;-46
2023/08/17 08:06:47;;;;;;;36.10;34.60;;;23.80;99.90;;;;;;5061504;28;20960;-47
2023/08/17 08:09:14;;;;;;;34.73;33.27;;;23.80;99.90;;;;;;5064036;28;20560;-47
2023/08/17 08:11:41;;;;;;;35.67;34.30;;;23.80;99.90;;;;;;5064496;28;20467;-46
2023/08/17 08:14:09;;;;;;;35.30;33.93;;;23.80;99.90;;;;;;5062532;28;20958;-46
2023/08/17 08:16:36;;;;;;;34.27;32.70;;;23.80;99.90;;;;;;5061174;28;20468;-48
2023/08/17 08:19:03;;;;;;;33.63;32.17;;;23.80;99.90;;;;;;5062629;28;20475;-47
2023/08/17 08:21:29;;;;;;;36.80;35.40;;;23.80;99.90;;;;;;5064459;28;20990;-46
2023/08/17 08:23:57;;;;;;;33.73;32.43;;;23.80;99.90;;;;;;5063763;28;20444;-46
2023/08/17 08:26:24;;;;;;;38.33;36.57;;;23.80;99.90;;;;;;5061036;28;20436;-48
2023/08/17 08:28:51;;;;;;;34.60;33.10;;;23.80;99.90;;;;;;5060858;28;20508;-48
2023/08/17 08:31:19;;;;;;;34.73;33.37;;;23.80;99.90;;;;;;5064214;28;20479;-48
2023/08/17 08:33:46;;;;;;;33.00;31.50;;;23.80;99.90;;;;;;5064124;28;20474;-48
2023/08/17 08:36:13;;;;;;;34.63;33.23;;;23.80;99.90;;;;;;5061344;28;20475;-49
2023/08/17 08:38:40;;;;;;;35.00;33.70;;;23.80;99.90;;;;;;5060948;28;20486;-47
2023/08/17 08:41:08;;;;;;;33.33;32.03;;;23.80;99.90;;;;;;5062486;28;20882;-48
2023/08/17 08:43:35;;;;;;;36.03;34.63;;;23.80;99.90;;;;;;5063923;28;20463;-47
2023/08/17 08:46:03;;;;;;;35.53;34.03;;;23.80;99.90;;;;;;5062863;28;20479;-47
2023/08/17 08:48:32;;;;;;;35.70;33.87;;;23.80;99.90;;;;;;5060584;28;20441;-48
2023/08/17 08:51:01;;;;;;;34.73;33.43;;;23.80;99.90;;;;;;5061143;28;20495;-48
2023/08/17 08:53:32;;;;;;;33.37;31.97;;;23.80;99.90;;;;;;5063727;28;20448;-47
2023/08/17 08:56:00;;;;;;;35.10;33.60;;;23.80;99.90;;;;;;5063220;28;20435;-46
2023/08/17 08:58:28;;;;;;;38.70;37.20;;;23.80;99.90;;;;;;5060345;28;20563;-48
2023/08/17 09:00:55;;;;;;;35.80;34.30;;;23.80;99.90;;;;;;5060339;28;20492;-46
2023/08/17 09:03:23;;;;;;;37.17;35.67;;;23.90;99.90;;;;;;5063534;28;20440;-47
2023/08/17 09:05:52;;;;;;;36.87;35.27;;;23.90;99.90;;;;;;5063748;28;20990;-47
2023/08/17 09:08:23;;;;;;;38.47;36.77;;;23.80;99.90;;;;;;5060261;28;20467;-48
2023/08/17 09:10:50;;;;;;;37.50;35.90;;;23.90;99.90;;;;;;5060081;28;20486;-48
2023/08/17 09:13:17;;;;;;;38.60;36.90;;;23.90;99.90;;;;;;5062847;28;20471;-47
2023/08/17 09:15:44;;;;;;;39.63;37.83;;;23.90;99.90;;;;;;5063262;28;20479;-46
2023/08/17 09:18:11;;;;;;;38.30;36.60;;;23.90;99.90;;;;;;5061312;28;20479;-47
2023/08/17 09:20:40;;;;;;;39.73;38.03;;;23.90;99.90;;;;;;5060078;28;20445;-47
2023/08/17 09:23:13;;;;;;;39.93;38.03;;;23.80;99.90;;;;;;5061294;28;20520;-48
2023/08/17 09:25:42;;;;;;;38.40;36.70;;;23.90;99.90;;;;;;5063364;28;20459;-46
2023/08/17 09:28:10;;;;;;;41.23;39.53;;;23.90;99.90;;;;;;5061502;28;20475;-48
2023/08/17 09:30:55;;;;;;;37.40;35.90;;;23.90;99.90;;;;;;5059631;28;20482;-46
2023/08/17 09:33:22;;;;;;;37.87;36.17;;;23.90;99.90;;;;;;5051075;28;20513;-46
2023/08/17 09:35:50;;;;;;;38.80;37.10;;;23.90;99.90;;;;;;5059748;28;20441;-47
2023/08/17 09:38:18;;;;;;;36.93;35.23;;;23.90;99.90;;;;;;5062471;28;20514;-47
2023/08/17 09:40:46;;;;;;;35.70;34.20;;;23.90;99.90;;;;;;5063076;28;20483;-48
2023/08/17 09:43:13;;;;;;;39.80;38.10;;;23.80;99.90;;;;;;5060547;28;20807;-49
2023/08/17 09:45:40;;;;;;;38.47;36.90;;;23.90;99.90;;;;;;5059619;28;20432;-46
2023/08/17 09:48:08;;;;;;;38.70;37.00;;;23.90;99.90;;;;;;5061176;28;20873;-47
2023/08/17 09:50:35;;;;;;;37.53;35.60;;;23.90;99.90;;;;;;5062960;28;21018;-46
2023/08/17 09:53:04;;;;;;;40.07;38.37;;;23.90;99.90;;;;;;5061850;28;20568;-46
2023/08/17 09:55:33;;;;;;;36.97;35.37;;;23.90;99.90;;;;;;5059441;28;20472;-46
2023/08/17 09:58:01;;;;;;;38.73;37.03;;;23.90;99.90;;;;;;5060104;28;20803;-48
2023/08/17 10:00:28;;;;;;;38.30;36.60;;;23.90;99.90;;;;;;5062858;28;20452;-47
2023/08/17 10:02:58;;;;;;;37.40;35.37;;;23.90;99.90;;;;;;5062709;28;20516;-48
2023/08/17 10:05:26;;;;;;;36.57;35.07;;;23.90;99.90;;;;;;5051839;28;20471;-48
2023/08/17 10:07:57;;;;;;;40.50;38.80;;;23.90;99.90;;;;;;5059366;28;20447;-48
2023/08/17 10:10:27;;;;;;;38.57;36.77;;;23.80;99.90;;;;;;5051333;28;20533;-48
2023/08/17 10:13:04;;;;;;;37.43;35.73;;;23.80;99.90;;;;;;5059171;28;20816;-47
2023/08/17 10:15:33;;;;;;;40.20;38.50;;;23.90;99.90;;;;;;5052591;28;20478;-48
2023/08/17 10:18:08;;;;;;;39.33;37.63;;;23.90;99.90;;;;;;5059532;28;20436;-48
2023/08/17 10:20:38;;;;;;;37.77;36.17;;;23.90;99.90;;;;;;5062683;28;20483;-48
2023/08/17 10:23:12;;;;;;;37.77;35.80;;;23.90;99.90;;;;;;5061477;28;20471;-50
2023/08/17 10:25:41;;;;;;;36.20;34.60;;;23.90;99.90;;;;;;5059382;28;20870;-49
2023/08/17 10:28:10;;;;;;;39.60;37.70;;;23.90;99.90;;;;;;5064803;28;20472;-48
2023/08/17 10:30:38;;;;;;;39.57;37.67;;;23.90;99.90;;;;;;5061125;28;20559;-49
2023/08/17 10:33:06;;;;;;;38.90;37.30;;;23.90;99.90;;;;;;5063774;28;20497;-49
2023/08/17 10:35:35;;;;;;;39.47;37.77;;;23.90;99.90;;;;;;5066814;28;20443;-48
2023/08/17 10:38:03;;;;;;;37.90;36.10;;;23.90;99.90;;;;;;5065892;28;20439;-48
2023/08/17 10:40:36;;;;;;;37.70;36.00;;;23.90;99.90;;;;;;5063037;28;20483;-49
2023/08/17 10:43:03;;;;;;;38.13;36.53;;;23.90;99.90;;;;;;5063380;28;20471;-47
2023/08/17 10:45:34;;;;;;;41.40;39.60;;;23.90;99.90;;;;;;5066300;28;20450;-47
2023/08/17 10:48:19;;;;;;;39.93;38.20;;;23.90;99.90;;;;;;5066026;28;20445;-50
2023/08/17 10:51:03;;;;;;;40.97;39.17;;;23.90;99.90;;;;;;5052634;28;20936;-48
2023/08/17 10:53:38;;;;;;;39.97;38.23;;;23.90;99.90;;;;;;5055430;28;20472;-49
2023/08/17 10:56:08;;;;;;;39.13;37.33;;;23.90;99.90;;;;;;5063533;28;20443;-48
2023/08/17 10:58:34;;;;;;;40.33;38.63;;;23.90;99.90;;;;;;5066198;28;20504;-47
2023/08/17 11:01:03;;;;;;;40.60;38.60;;;23.90;99.90;;;;;;5065710;28;20554;-50
2023/08/17 11:03:30;;;;;;;40.57;38.60;;;23.90;99.90;;;;;;5062551;28;20440;-48
2023/08/17 11:05:58;;;;;;;38.33;36.63;;;23.90;99.90;;;;;;5062534;28;20452;-48
2023/08/17 11:08:28;;;;;;;40.53;38.77;;;23.90;99.90;;;;;;5054333;28;20451;-48
2023/08/17 11:11:03;;;;;;;40.60;38.80;;;23.90;99.90;;;;;;5062307;28;20518;-48
2023/08/17 11:13:31;;;;;;;39.30;37.43;;;23.90;99.90;;;;;;5055111;28;20439;-47
2023/08/17 11:15:59;;;;;;;42.87;40.90;;;24.00;99.90;;;;;;5062613;28;20464;-48
2023/08/17 11:18:28;;;;;;;39.90;38.10;;;24.00;99.90;;;;;;5054437;28;20476;-49
2023/08/17 11:20:55;;;;;;;38.97;37.17;;;24.00;99.90;;;;;;5062207;28;20456;-49
2023/08/17 11:23:24;;;;;;;40.47;38.67;;;23.90;99.90;;;;;;5065069;28;20947;-45
2023/08/17 11:25:53;;;;;;;42.63;40.50;;;24.00;99.90;;;;;;5065657;28;20442;-48
2023/08/17 11:28:20;;;;;;;44.30;42.30;;;23.90;99.90;;;;;;5062826;28;20535;-47
2023/08/17 11:30:56;;;;;;;40.97;38.93;;;24.00;99.90;;;;;;5061958;28;20558;-48
2023/08/17 11:33:23;;;;;;;38.67;36.97;;;23.90;99.90;;;;;;5064984;28;20466;-46
2023/08/17 11:35:52;;;;;;;41.03;39.20;;;24.00;99.90;;;;;;5065359;28;20439;-46
2023/08/17 11:38:19;;;;;;;39.60;37.60;;;24.00;99.90;;;;;;5062361;28;20447;-48
2023/08/17 11:40:46;;;;;;;40.30;38.50;;;24.00;99.90;;;;;;5061854;28;20483;-47
2023/08/17 11:43:14;;;;;;;40.70;38.83;;;24.00;99.90;;;;;;5063427;28;20563;-46
2023/08/17 11:45:41;;;;;;;40.20;38.40;;;24.00;99.90;;;;;;5065331;28;20501;-46
2023/08/17 11:48:09;;;;;;;42.50;40.53;;;24.00;99.90;;;;;;5064182;28;20512;-46
2023/08/17 11:50:36;;;;;;;44.57;42.57;;;24.00;99.90;;;;;;5061664;28;20542;-46
2023/08/17 11:53:05;;;;;;;41.63;39.73;;;24.00;99.90;;;;;;5061688;28;20526;-46
2023/08/17 11:55:32;;;;;;;40.23;38.43;;;24.00;99.90;;;;;;5065271;28;20451;-46
2023/08/17 11:57:59;;;;;;;40.37;38.47;;;24.00;99.90;;;;;;5065287;28;20464;-46
2023/08/17 12:00:26;;;;;;;42.60;40.63;;;24.00;99.90;;;;;;5061395;28;20484;-46
2023/08/17 12:02:54;;;;;;;41.17;39.40;;;24.10;99.90;;;;;;5061443;28;20506;-46
2023/08/17 12:05:24;;;;;;;40.23;38.33;;;24.10;99.90;;;;;;5063989;28;20445;-46
2023/08/17 12:07:53;;;;;;;38.80;37.00;;;24.10;99.90;;;;;;5064919;28;20497;-46
2023/08/17 12:10:22;;;;;;;40.57;38.57;;;24.10;99.90;;;;;;5062136;28;20552;-49
2023/08/17 12:12:49;;;;;;;42.07;39.97;;;24.10;99.90;;;;;;5061261;28;20451;-48
2023/08/17 12:15:17;;;;;;;40.80;39.00;;;24.10;99.90;;;;;;5063052;28;20531;-46
2023/08/17 12:17:47;;;;;;;37.50;35.80;;;24.10;99.90;;;;;;5064721;28;20892;-46
2023/08/17 12:20:18;;;;;;;39.80;38.07;;;24.10;99.90;;;;;;5062865;28;20802;-46
2023/08/17 12:22:45;;;;;;;40.47;38.77;;;24.10;99.90;;;;;;5061006;28;20506;-46
2023/08/17 12:25:12;;;;;;;43.13;41.23;;;24.10;99.90;;;;;;5062445;28;20472;-46
2023/08/17 12:27:40;;;;;;;40.20;38.50;;;24.10;99.90;;;;;;5064766;28;20497;-46
2023/08/17 12:30:24;;;;;;;41.03;39.23;;;24.10;99.90;;;;;;5063386;28;20582;-46
2023/08/17 12:32:51;;;;;;;41.67;39.87;;;24.10;99.90;;;;;;5060792;28;20464;-46